Aérodrome :
LOGIN :

S'inscrire | Disclaimer

   EN    FR    IT 

 










Légende :    VFR   VFR Marginal   IFR   IFR Intensif   IFR Très Intensif
Visi : 
Plafond : 
>= 8 km
>= 3000ft
5 à 8 km
1000 à 3000 ft
1500m à 5 km
500 à 1000 ft
800 à 1500m
200 à 500 ft
< 800m
< 200 ft
Symboles :   Orages  Brouillard  Fortes neiges  Fortes précipitations  Vent > 20 kt
SIGMETs :   Divers  Orages  Givrage  Turbulence  Onde Orograph.  Cendres Volcan.






- Altitude de l'aérodrome : 162 ft
- Code IATA : BOD


LFBD - Bordeaux / Merignac

DERNIER METAR :
  • 100530Z AUTO 13002KT 9999 OVC032 04/04 Q1030 TEMPO 3000 MIFG

METARs EXPIRÉS :
  • 100500Z AUTO 15003KT 9999 BKN032 OVC043 03/03 Q1030 TEMPO 3000 MIFG
  • 100430Z AUTO VRB02KT 7000 SCT033 BKN043 03/03 Q1030 TEMPO 3000 MIFG
  • 100400Z AUTO 15002KT 7000 2400 BKN047 03/03 Q1030 TEMPO 3000 MIFG
  • 100330Z AUTO 17002KT 9999 FEW037 BKN050 03/03 Q1031 TEMPO 3000 MIFG
  • 100300Z AUTO 00000KT 9999 SCT038 OVC050 04/03 Q1031 TEMPO 3000 MIFG

TAF AMD TAF LFBD
Valide du 10 à 01h jusqu'au 11 à 06h UTC


100150Z 1001/1106 VRB02KT 8000 NSC TX12/1013Z TN02/1005Z
PROB40
TEMPO 1002/1007 3000 MIFG
BECMG 1008/1010 16007KT CAVOK
BECMG 1022/1024 OVC040
BECMG 1103/1105 25010KT 3000 RA OVC015
ATIS : +33 5 57 92 81 04



MET'MAP, la Météo Aéronautique d'un coup d'oeil ! - Copyright ORBIFLY Décembre 2007 - Disclaimer

ORBIFLY MET'MAP TEAM :

Programmation & Développement : Alexandra Zaïnal
Sur une idée originale de : Baudouin d'Aumeries
Assistance à la programmation : Marc-Olivier Méhu
Soutien technique & logistique : Manuel Goepfert

Contact : metmap@orbifly.com




SOURCES & CREDITS :

   NOAA